Terminal Aerodrome Forecast
Issued by NWS

Home | Current Version | Previous Version | Text Only | Print | Product List | Glossary On
Versions: 1 2 3 4 5 6 7 8 9 10 11 12 13 14 15 16 17 18 19 20 21 22
312
FTUS41 KRLX 111135
TAFCKB
TAF
KCKB 111135Z 1112/1212 09003KT P6SM OVC060
     FM111500 14005KT P6SM OVC080
     FM120300 18006KT 3SM -RA OVC035
     FM120700 20007KT 2SM -RA OVC020
     FM120900 22008KT 4SM -RA OVC008=

USA.gov is the U.S. government's official web portal to all federal, state and local government web resources and services.